Time;durP1;ratioP1;P1;durP2;ratioP2;P2;SDS_P1;SDS_P2;PMS_P1;PMS_P2;Temp;Humidity;BMP_temperature;BMP_pressure;BME280_temperature;BME280_humidity;BME280_pressure;Samples;Min_cycle;Max_cycle;Signal;HPM_P1;HPM_P2
2021/11/11 00:00:09;;;;;;;29.23;11.97;;;;;;;-0.68;67.53;101846.05;1658777;85;21113;-75
2021/11/11 00:02:41;;;;;;;29.25;11.55;;;;;;;-0.69;67.21;101843.87;1667854;85;21050;-75
2021/11/11 00:05:09;;;;;;;26.40;11.43;;;;;;;-0.69;66.63;101849.05;1680322;85;21133;-73
2021/11/11 00:07:37;;;;;;;32.53;12.65;;;;;;;-0.72;66.29;101843.74;1686262;85;21129;-74
2021/11/11 00:10:08;;;;;;;29.23;11.50;;;;;;;-0.73;67.33;101842.00;1665802;85;21182;-75
2021/11/11 00:12:35;;;;;;;27.30;11.97;;;;;;;-0.73;65.74;101856.64;1686422;85;21306;-76
2021/11/11 00:15:04;;;;;;;25.08;11.30;;;;;;;-0.76;66.46;101854.83;1686334;85;21651;-76
2021/11/11 00:17:31;;;;;;;28.30;11.90;;;;;;;-0.78;65.48;101850.01;1686404;85;21688;-76
2021/11/11 00:19:57;;;;;;;22.58;11.70;;;;;;;-0.78;65.80;101841.34;1686633;85;21164;-75
2021/11/11 00:22:23;;;;;;;26.50;11.03;;;;;;;-0.79;65.57;101830.54;1686367;85;21538;-76
2021/11/11 00:24:50;;;;;;;23.12;10.68;;;;;;;-0.82;66.31;101825.27;1686572;85;21554;-73
2021/11/11 00:27:17;;;;;;;21.93;8.93;;;;;;;-0.83;66.51;101820.48;1661277;85;21089;-75
2021/11/11 00:29:44;;;;;;;22.73;10.70;;;;;;;-0.85;66.82;101821.73;1658363;84;21042;-75
2021/11/11 00:32:11;;;;;;;25.25;11.08;;;;;;;-0.86;67.28;101814.78;1659106;86;21715;-74
2021/11/11 00:34:38;;;;;;;25.45;11.50;;;;;;;-0.88;68.13;101819.02;1658603;85;21140;-75
2021/11/11 00:37:04;;;;;;;31.85;11.80;;;;;;;-0.90;67.23;101821.08;1658968;85;21078;-75
2021/11/11 00:39:31;;;;;;;24.47;11.03;;;;;;;-0.90;68.33;101813.32;1658349;86;21106;-74
2021/11/11 00:41:58;;;;;;;27.48;12.35;;;;;;;-0.91;69.39;101808.98;1658853;85;21076;-74
2021/11/11 00:44:25;;;;;;;27.55;11.25;;;;;;;-0.93;68.42;101805.46;1658626;85;21663;-74
2021/11/11 00:46:52;;;;;;;23.10;11.63;;;;;;;-0.92;68.22;101805.92;1658822;86;21114;-75
2021/11/11 00:49:20;;;;;;;26.55;12.15;;;;;;;-0.94;67.21;101797.25;1658407;85;21082;-75
2021/11/11 00:51:46;;;;;;;23.10;10.82;;;;;;;-0.96;67.53;101799.77;1668992;85;21126;-76
2021/11/11 00:54:13;;;;;;;28.52;11.55;;;;;;;-0.95;67.74;101801.52;1686485;85;21082;-76
2021/11/11 00:56:40;;;;;;;33.50;11.85;;;;;;;-0.98;67.62;101795.38;1734384;82;21030;-75
2021/11/11 00:59:10;;;;;;;26.15;11.65;;;;;;;-1.01;67.40;101805.58;1734688;82;22102;-77
2021/11/11 01:01:35;;;;;;;23.67;11.12;;;;;;;-1.01;67.76;101804.28;1734196;81;21046;-76
2021/11/11 01:04:01;;;;;;;29.40;12.33;;;;;;;-1.04;67.51;101801.59;1724505;82;21029;-74
2021/11/11 01:06:28;;;;;;;27.13;11.78;;;;;;;-1.04;68.12;101795.13;1694465;84;21055;-75
2021/11/11 01:08:57;;;;;;;27.80;11.80;;;;;;;-1.06;67.74;101793.39;1692884;82;21083;-73
2021/11/11 01:11:25;;;;;;;29.87;11.38;;;;;;;-1.06;68.04;101793.39;1733966;82;21141;-75
2021/11/11 01:13:52;;;;;;;26.42;11.10;;;;;;;-1.09;67.87;101788.08;1734020;82;21094;-74
2021/11/11 01:16:20;;;;;;;27.35;11.05;;;;;;;-1.07;68.25;101783.84;1734010;82;21105;-74
2021/11/11 01:18:47;;;;;;;26.20;12.05;;;;;;;-1.07;68.34;101774.80;1734513;82;21560;-76
2021/11/11 01:21:14;;;;;;;27.65;11.65;;;;;;;-1.07;68.76;101770.92;1734222;82;21034;-75
2021/11/11 01:23:41;;;;;;;26.25;11.85;;;;;;;-1.09;68.92;101776.44;1734143;82;21141;-75
2021/11/11 01:26:09;;;;;;;26.68;11.95;;;;;;;-1.10;69.92;101773.41;1733855;82;21140;-75
2021/11/11 01:28:37;;;;;;;24.60;10.32;;;;;;;-1.12;69.67;101771.17;1733962;82;21616;-74
2021/11/11 01:31:07;;;;;;;24.37;11.48;;;;;;;-1.13;70.94;101781.45;1734118;82;21082;-74
2021/11/11 01:33:36;;;;;;;34.48;11.83;;;;;;;-1.14;70.02;101769.36;1733972;82;21089;-73
2021/11/11 01:36:04;;;;;;;26.12;10.80;;;;;;;-1.15;69.68;101765.89;1733876;82;21531;-75
2021/11/11 01:38:37;;;;;;;25.48;11.28;;;;;;;-1.15;69.75;101761.11;1724289;82;21489;-74
2021/11/11 01:41:05;;;;;;;29.07;12.85;;;;;;;-1.16;69.71;101760.23;1734045;82;21062;-75
2021/11/11 01:43:35;;;;;;;24.77;11.95;;;;;;;-1.18;69.97;101755.84;1713366;82;21529;-75
2021/11/11 01:46:01;;;;;;;29.75;10.75;;;;;;;-1.18;69.84;101754.12;1734004;82;21007;-76
2021/11/11 01:48:28;;;;;;;29.95;12.95;;;;;;;-1.17;69.46;101748.16;1734034;82;21125;-76
2021/11/11 01:50:57;;;;;;;24.80;11.73;;;;;;;-1.15;69.67;101745.22;1733574;81;21046;-72
2021/11/11 01:53:26;;;;;;;31.90;14.93;;;;;;;-1.14;69.74;101750.84;1734024;82;21490;-76
2021/11/11 01:55:53;;;;;;;22.62;11.57;;;;;;;-1.15;70.07;101754.27;1734251;82;21046;-77
2021/11/11 01:58:22;;;;;;;30.88;12.93;;;;;;;-1.13;70.60;101743.95;1734436;82;20982;-76
2021/11/11 02:00:56;;;;;;;22.32;10.65;;;;;;;-1.14;70.21;101737.91;1734234;82;21553;-76
2021/11/11 02:03:25;;;;;;;21.85;10.15;;;;;;;-1.15;70.67;101729.70;1732983;82;21128;-76
2021/11/11 02:05:59;;;;;;;22.25;10.55;;;;;;;-1.16;71.36;101730.51;1734094;82;21027;-75
2021/11/11 02:08:28;;;;;;;22.62;9.73;;;;;;;-1.16;71.14;101727.92;1733192;82;21101;-75
2021/11/11 02:10:56;;;;;;;19.55;9.48;;;;;;;-1.15;71.18;101719.36;1731998;82;21106;-76
2021/11/11 02:13:23;;;;;;;20.62;10.40;;;;;;;-1.15;70.66;101712.90;1719411;83;21145;-76
2021/11/11 02:15:50;;;;;;;17.77;9.90;;;;;;;-1.15;70.54;101714.19;1719509;82;21075;-76
2021/11/11 02:18:18;;;;;;;25.70;10.32;;;;;;;-1.16;70.46;101709.83;1719663;83;21044;-75
2021/11/11 02:20:46;;;;;;;21.33;9.68;;;;;;;-1.11;70.37;101706.98;1719413;82;21047;-75
2021/11/11 02:23:17;;;;;;;21.12;9.40;;;;;;;-1.11;70.47;101701.81;1719489;82;21086;-76
2021/11/11 02:25:59;;;;;;;20.52;9.83;;;;;;;-1.12;70.27;101706.53;1719408;82;21147;-75
2021/11/11 02:28:28;;;;;;;19.60;8.75;;;;;;;-1.12;70.61;101707.83;1719093;82;21071;-73
2021/11/11 02:30:55;;;;;;;17.40;8.68;;;;;;;-1.13;70.61;101704.78;1723931;82;21075;-74
2021/11/11 02:33:25;;;;;;;17.27;8.83;;;;;;;-1.12;70.80;101701.36;1723512;82;21055;-74
2021/11/11 02:35:52;;;;;;;20.60;8.95;;;;;;;-1.12;70.74;101697.48;1724975;82;21083;-74
2021/11/11 02:38:19;;;;;;;16.50;8.35;;;;;;;-1.13;71.54;101704.78;1724944;83;21146;-73
2021/11/11 02:40:46;;;;;;;20.02;8.48;;;;;;;-1.13;71.63;101699.61;1724195;82;21472;-71
2021/11/11 02:43:14;;;;;;;16.12;8.48;;;;;;;-1.13;73.68;101694.83;1724452;83;21115;-73
2021/11/11 02:45:45;;;;;;;24.98;8.63;;;;;;;-1.15;73.11;101696.09;1724626;82;21577;-74
2021/11/11 02:48:15;;;;;;;22.22;9.63;;;;;;;-1.15;72.93;101697.77;1724677;83;21113;-76
2021/11/11 02:50:43;;;;;;;24.47;10.65;;;;;;;-1.18;72.29;101693.38;1724791;82;21590;-75
2021/11/11 02:53:11;;;;;;;33.38;12.07;;;;;;;-1.19;71.85;101695.50;1724425;82;21107;-74
2021/11/11 02:55:41;;;;;;;27.05;12.73;;;;;;;-1.19;71.98;101689.05;1724404;83;21578;-74
2021/11/11 02:58:08;;;;;;;25.27;10.63;;;;;;;-1.18;71.77;101679.58;1724705;83;21047;-76
2021/11/11 03:01:00;;;;;;;16.30;8.15;;;;;;;-1.19;71.98;101680.00;1724610;83;21054;-75
2021/11/11 03:03:31;;;;;;;16.70;8.75;;;;;;;-1.19;71.80;101676.54;1725358;83;21087;-75
2021/11/11 03:05:58;;;;;;;16.17;8.05;;;;;;;-1.18;71.65;101669.23;1706492;83;21091;-75
2021/11/11 03:08:24;;;;;;;20.80;8.30;;;;;;;-1.17;72.11;101674.47;1725160;83;21093;-74
2021/11/11 03:10:53;;;;;;;20.15;9.68;;;;;;;-1.15;72.08;101670.63;1724661;82;21047;-75
2021/11/11 03:13:22;;;;;;;15.18;7.78;;;;;;;-1.14;72.02;101674.98;1724600;82;21059;-73
2021/11/11 03:15:57;;;;;;;17.48;7.70;;;;;;;-1.13;72.83;101668.59;1724341;82;22352;-72
2021/11/11 03:18:24;;;;;;;16.45;7.95;;;;;;;-1.13;72.77;101660.84;1707183;83;21004;-76
2021/11/11 03:20:51;;;;;;;13.35;6.45;;;;;;;-1.14;71.91;101659.06;1724757;82;21051;-75
2021/11/11 03:23:17;;;;;;;21.27;8.78;;;;;;;-1.14;72.19;101653.88;1727195;82;21046;-75
2021/11/11 03:25:46;;;;;;;17.20;7.47;;;;;;;-1.11;72.15;101648.81;1742154;82;21053;-75
2021/11/11 03:28:13;;;;;;;14.47;5.97;;;;;;;-1.10;71.78;101651.88;1742028;82;21137;-75
2021/11/11 03:30:42;;;;;;;15.05;8.48;;;;;;;-1.10;71.88;101646.70;1745842;82;21045;-74
2021/11/11 03:33:09;;;;;;;19.07;8.45;;;;;;;-1.07;71.77;101641.63;1747660;82;21056;-74
2021/11/11 03:35:40;;;;;;;24.12;10.08;;;;;;;-1.07;71.79;101641.63;1747362;82;21567;-74
2021/11/11 03:38:08;;;;;;;21.30;9.43;;;;;;;-1.06;71.90;101633.45;1747904;82;21092;-74
2021/11/11 03:40:39;;;;;;;19.90;10.80;;;;;;;-1.05;71.43;101628.77;1747931;82;21071;-74
2021/11/11 03:44:07;;;;;;;14.17;7.17;;;;;;;-0.97;72.07;101616.09;1814270;79;22327;-75
2021/11/11 03:46:35;;;;;;;17.12;8.28;;;;;;;-1.03;72.24;101615.91;1787268;80;21088;-76
2021/11/11 03:49:01;;;;;;;18.60;8.68;;;;;;;-1.06;71.61;101605.02;1787507;80;21631;-75
2021/11/11 03:51:28;;;;;;;19.48;9.30;;;;;;;-1.06;71.55;101598.16;1787189;80;21004;-75
2021/11/11 03:53:55;;;;;;;15.38;8.00;;;;;;;-1.08;71.64;101594.64;1787672;80;21013;-75
2021/11/11 03:56:22;;;;;;;19.32;9.05;;;;;;;-1.08;71.63;101595.06;1787364;80;21579;-75
2021/11/11 03:58:50;;;;;;;21.95;9.48;;;;;;;-1.09;71.71;101588.98;1755892;80;21028;-74
2021/11/11 04:01:17;;;;;;;19.92;7.58;;;;;;;-1.10;71.74;101580.78;1752697;81;21790;-74
2021/11/11 04:03:44;;;;;;;19.85;9.00;;;;;;;-1.13;71.93;101584.56;1766376;80;21055;-75
2021/11/11 04:06:11;;;;;;;21.05;9.03;;;;;;;-1.17;72.17;101577.52;1754226;81;21003;-74
2021/11/11 04:08:39;;;;;;;22.73;9.55;;;;;;;-1.21;72.33;101567.91;1725568;81;21055;-73
2021/11/11 04:11:06;;;;;;;19.55;9.25;;;;;;;-1.23;72.68;101572.13;1754596;81;21071;-73
2021/11/11 04:13:32;;;;;;;21.93;9.33;;;;;;;-1.26;73.00;101564.29;1726747;81;21137;-74
2021/11/11 04:16:00;;;;;;;21.65;9.23;;;;;;;-1.29;73.60;101556.41;1724090;83;21036;-73
2021/11/11 04:18:31;;;;;;;25.45;10.05;;;;;;;-1.31;73.80;101561.55;1724400;83;21039;-74
2021/11/11 04:20:58;;;;;;;19.27;8.83;;;;;;;-1.34;74.00;101558.83;1724394;83;21562;-74
2021/11/11 04:23:25;;;;;;;20.68;8.68;;;;;;;-1.35;74.29;101553.63;1752745;81;21037;-82
2021/11/11 04:26:40;;;;;;;19.77;9.03;;;;;;;-1.38;74.81;101550.92;1746251;81;21188;-83
2021/11/11 04:28:29;;;;;;;21.35;8.95;;;;;;;-1.44;74.87;101551.61;1712166;81;21734;-85
2021/11/11 04:30:57;;;;;;;21.25;10.08;;;;;;;-1.47;75.71;101546.34;1746240;81;21006;-82
2021/11/11 04:33:21;;;;;;;22.17;9.25;;;;;;;-1.50;75.21;101545.80;1751185;81;21077;-84
2021/11/11 04:35:54;;;;;;;20.88;9.20;;;;;;;-1.52;75.02;101543.98;1756350;81;20974;-84
2021/11/11 04:49:12;;;;;;;19.15;8.28;;;;;;;-1.55;75.67;101538.73;1723119;82;21052;-73
2021/11/11 05:02:11;;;;;;;26.77;11.43;;;;;;;-1.55;76.19;101524.09;1643537;84;21040;-75
2021/11/11 05:04:25;;;;;;;19.32;10.13;;;;;;;-1.57;76.24;101517.99;1679538;84;21097;-76
2021/11/11 05:06:52;;;;;;;15.35;7.33;;;;;;;-1.56;76.41;101523.64;1662055;86;21068;-76
2021/11/11 05:09:19;;;;;;;21.07;8.70;;;;;;;-1.55;76.12;101527.97;1714207;83;21061;-73
2021/11/11 05:11:48;;;;;;;19.62;10.00;;;;;;;-1.51;76.02;101532.42;1709944;82;21025;-76
2021/11/11 05:14:15;;;;;;;30.32;12.85;;;;;;;-1.46;75.91;101536.88;1684648;83;21079;-75
2021/11/11 05:16:42;;;;;;;38.05;14.30;;;;;;;-1.44;75.85;101526.19;1684190;83;21513;-74
2021/11/11 05:19:09;;;;;;;32.35;15.18;;;;;;;-1.40;75.72;101539.66;1684483;83;21087;-74
2021/11/11 05:21:37;;;;;;;26.45;11.57;;;;;;;-1.38;75.59;101544.08;1683861;83;21601;-76
2021/11/11 05:24:05;;;;;;;20.15;9.55;;;;;;;-1.36;75.49;101538.94;1686320;85;21071;-74
2021/11/11 05:26:34;;;;;;;22.25;9.68;;;;;;;-1.32;75.29;101545.97;1685354;85;21107;-75
2021/11/11 05:29:01;;;;;;;19.45;9.15;;;;;;;-1.30;75.10;101543.03;1684314;85;21801;-75
2021/11/11 05:31:28;;;;;;;21.30;9.35;;;;;;;-1.25;74.70;101543.19;1684149;85;21554;-75
2021/11/11 05:33:55;;;;;;;19.60;8.78;;;;;;;-1.21;74.53;101553.68;1684284;85;21099;-74
2021/11/11 05:36:24;;;;;;;16.75;7.67;;;;;;;-1.20;74.24;101550.25;1682147;82;21515;-75
2021/11/11 05:38:51;;;;;;;18.12;8.90;;;;;;;-1.16;74.24;101540.48;1684029;83;21118;-74
2021/11/11 05:41:18;;;;;;;15.32;8.20;;;;;;;-1.11;74.40;101534.17;1683650;85;21120;-75
2021/11/11 05:43:47;;;;;;;16.95;6.65;;;;;;;-1.07;73.90;101535.63;1684777;83;21106;-74
2021/11/11 05:46:17;;;;;;;16.62;8.98;;;;;;;-1.01;73.87;101537.94;1683830;83;21135;-75
2021/11/11 05:48:45;;;;;;;15.80;8.20;;;;;;;-0.97;73.31;101537.22;1683390;85;22095;-75
2021/11/11 05:51:12;;;;;;;13.45;6.33;;;;;;;-0.91;72.79;101528.37;1682913;85;21579;-75
2021/11/11 05:53:39;;;;;;;14.45;6.53;;;;;;;-0.86;72.51;101525.09;1683192;83;21112;-74
2021/11/11 05:56:06;;;;;;;14.15;6.78;;;;;;;-0.81;72.74;101516.18;1662657;83;21617;-76
2021/11/11 05:58:33;;;;;;;14.30;8.10;;;;;;;-0.75;72.43;101516.80;1689990;84;21070;-74
2021/11/11 06:01:00;;;;;;;17.90;7.35;;;;;;;-0.68;71.99;101506.69;1674981;84;21145;-76
2021/11/11 06:03:28;;;;;;;17.12;8.28;;;;;;;-0.62;71.78;101499.55;1694143;83;21147;-76
2021/11/11 06:05:57;;;;;;;16.95;7.92;;;;;;;-0.52;71.92;101503.28;1724011;83;21511;-77
2021/11/11 06:08:26;;;;;;;16.93;7.35;;;;;;;-0.40;71.80;101498.45;1711397;83;22137;-76
2021/11/11 06:10:54;;;;;;;15.08;7.10;;;;;;;0.04;70.78;101505.33;1690881;81;21067;-76
2021/11/11 06:13:24;;;;;;;13.15;6.53;;;;;;;0.60;69.43;101503.82;1700314;83;21071;-75
2021/11/11 06:15:55;;;;;;;19.97;7.17;;;;;;;1.15;65.11;101506.47;1706000;83;21739;-77
2021/11/11 06:18:21;;;;;;;18.80;8.15;;;;;;;1.76;63.21;101512.14;1706758;82;21224;-76
2021/11/11 06:20:57;;;;;;;16.57;7.90;;;;;;;2.30;60.46;101510.20;1724455;83;21040;-77
2021/11/11 06:23:18;;;;;;;20.20;7.07;;;;;;;2.76;58.65;101503.66;1711348;83;21101;-76
2021/11/11 06:25:47;;;;;;;19.15;8.10;;;;;;;3.07;56.61;101503.70;1712753;83;21106;-77
2021/11/11 06:28:14;;;;;;;37.73;14.03;;;;;;;3.41;55.06;101501.62;1702790;83;21094;-78
2021/11/11 06:30:41;;;;;;;25.05;11.05;;;;;;;3.68;53.98;101498.52;1695233;83;21138;-77
2021/11/11 06:33:09;;;;;;;15.90;8.20;;;;;;;3.94;53.16;101496.67;1694126;84;21138;-76
2021/11/11 06:35:36;;;;;;;13.28;7.25;;;;;;;4.09;52.55;101481.62;1695058;83;21097;-78
2021/11/11 06:38:03;;;;;;;13.50;8.10;;;;;;;4.09;52.01;101482.92;1695287;83;21086;-76
2021/11/11 06:40:31;;;;;;;17.10;7.75;;;;;;;4.04;52.37;101471.58;1657701;86;21113;-76
2021/11/11 06:43:00;;;;;;;13.13;6.87;;;;;;;3.92;53.13;101467.10;1694152;83;21659;-75
2021/11/11 06:45:28;;;;;;;14.65;7.25;;;;;;;4.05;52.33;101473.31;1695128;84;21581;-76
2021/11/11 06:47:55;;;;;;;14.35;5.85;;;;;;;4.20;52.30;101470.87;1637741;86;21058;-78
2021/11/11 06:50:26;;;;;;;13.32;6.12;;;;;;;4.31;52.66;101460.13;1630359;87;21114;-76
2021/11/11 06:52:52;;;;;;;10.53;6.45;;;;;;;4.38;51.31;101459.33;1698985;83;21810;-76
2021/11/11 06:55:20;;;;;;;18.07;7.15;;;;;;;4.59;51.25;101457.78;1695545;83;21505;-76
2021/11/11 06:57:48;;;;;;;13.28;7.42;;;;;;;4.74;50.80;101458.33;1694690;84;21574;-76
2021/11/11 07:00:17;;;;;;;15.15;6.22;;;;;;;4.95;49.05;101451.98;1694850;84;21066;-77
2021/11/11 07:02:47;;;;;;;12.95;6.35;;;;;;;5.12;48.59;101452.09;1695075;83;21054;-76
2021/11/11 07:05:15;;;;;;;15.53;6.65;;;;;;;5.46;47.88;101460.14;1704194;83;21087;-78
2021/11/11 07:07:42;;;;;;;13.78;6.87;;;;;;;5.64;46.78;101451.08;1693577;83;21817;-77
2021/11/11 07:10:09;;;;;;;14.65;7.12;;;;;;;5.70;46.89;101454.14;1696274;83;21130;-77
2021/11/11 07:12:39;;;;;;;13.53;7.17;;;;;;;5.79;46.76;101445.47;1698438;83;21070;-76
2021/11/11 07:15:07;;;;;;;20.10;7.78;;;;;;;6.12;45.88;101449.98;1693067;83;21072;-75
2021/11/11 07:17:35;;;;;;;52.50;8.93;;;;;;;6.44;45.03;101443.90;1668277;84;21160;-77
2021/11/11 07:20:04;;;;;;;16.30;7.30;;;;;;;6.65;43.94;101440.45;1693743;84;21523;-77
2021/11/11 07:22:33;;;;;;;17.75;6.90;;;;;;;6.82;44.46;101442.61;1694817;84;21101;-77
2021/11/11 07:24:59;;;;;;;20.37;7.50;;;;;;;6.91;44.10;101451.77;1695333;84;21109;-78
2021/11/11 07:27:30;;;;;;;16.93;7.45;;;;;;;7.11;44.88;101449.58;1694713;83;21076;-77
2021/11/11 07:29:56;;;;;;;14.30;6.45;;;;;;;7.32;44.08;101453.45;1696579;83;21062;-77
2021/11/11 07:32:24;;;;;;;13.98;6.15;;;;;;;7.49;43.79;101450.77;1689645;83;21091;-75
2021/11/11 07:34:51;;;;;;;9.65;6.03;;;;;;;7.85;42.15;101444.09;1701844;83;21049;-75
2021/11/11 07:37:17;;;;;;;18.87;7.75;;;;;;;7.93;41.18;101451.02;1694875;84;21094;-77
2021/11/11 07:39:45;;;;;;;17.20;7.30;;;;;;;8.07;40.47;101450.09;1658263;86;21018;-79
2021/11/11 07:42:13;;;;;;;14.03;7.78;;;;;;;8.24;40.09;101440.83;1694704;84;21101;-77
2021/11/11 07:44:40;;;;;;;12.88;7.50;;;;;;;8.35;39.80;101435.03;1691868;84;21524;-76
2021/11/11 07:47:07;;;;;;;15.35;7.40;;;;;;;8.47;39.53;101432.38;1660443;86;21047;-76
2021/11/11 07:49:33;;;;;;;13.83;7.17;;;;;;;8.71;38.91;101429.11;1661747;86;21043;-77
2021/11/11 07:52:00;;;;;;;19.67;7.30;;;;;;;8.69;38.43;101431.74;1661189;84;21057;-78
2021/11/11 07:54:26;;;;;;;17.77;8.38;;;;;;;8.85;38.18;101425.91;1685204;85;21027;-77
2021/11/11 07:56:52;;;;;;;13.32;7.35;;;;;;;9.01;38.04;101424.88;1660864;86;21143;-76
2021/11/11 07:59:20;;;;;;;16.45;8.20;;;;;;;9.12;36.59;101417.34;1684677;84;21130;-77
2021/11/11 08:01:48;;;;;;;15.48;8.13;;;;;;;9.27;36.88;101404.05;1645011;86;21077;-78
2021/11/11 08:04:14;;;;;;;13.22;7.47;;;;;;;9.64;36.54;101406.23;1697516;83;21031;-77
2021/11/11 08:06:41;;;;;;;15.03;7.85;;;;;;;9.82;35.71;101407.30;1688299;83;21153;-75
2021/11/11 08:09:08;;;;;;;37.35;17.85;;;;;;;9.76;35.44;101399.48;1690864;84;22098;-77
2021/11/11 08:11:37;;;;;;;16.80;9.15;;;;;;;9.90;35.46;101394.03;1677378;82;21062;-78
2021/11/11 08:14:06;;;;;;;10.98;6.50;;;;;;;9.99;35.03;101398.30;1684123;83;21063;-74
2021/11/11 08:16:32;;;;;;;13.35;7.30;;;;;;;10.01;36.36;101389.49;1709634;83;21098;-75
2021/11/11 08:19:00;;;;;;;16.80;6.70;;;;;;;10.12;34.87;101388.45;1683660;85;21094;-75
2021/11/11 08:21:27;;;;;;;16.52;6.90;;;;;;;10.09;35.33;101386.73;1646431;86;21165;-77
2021/11/11 08:23:53;;;;;;;15.05;5.83;;;;;;;9.86;36.07;101383.98;1682364;85;21640;-78
2021/11/11 08:26:19;;;;;;;15.68;6.22;;;;;;;9.62;35.40;101390.91;1653314;86;21127;-76
2021/11/11 08:28:46;;;;;;;14.93;7.28;;;;;;;9.67;35.75;101391.72;1633611;87;21133;-76
2021/11/11 08:31:12;;;;;;;12.33;6.78;;;;;;;9.87;35.08;101403.30;1633979;87;21015;-76
2021/11/11 08:33:41;;;;;;;12.47;6.75;;;;;;;9.85;35.06;101394.09;1632976;87;21502;-76
2021/11/11 08:36:08;;;;;;;13.80;6.75;;;;;;;9.97;34.77;101392.19;1656707;85;21130;-75
2021/11/11 08:38:36;;;;;;;12.68;7.03;;;;;;;10.22;34.31;101388.30;1655705;85;21101;-75
2021/11/11 08:41:03;;;;;;;11.35;6.55;;;;;;;10.60;34.70;101383.32;1656639;86;21074;-75
2021/11/11 08:43:30;;;;;;;19.57;8.25;;;;;;;11.18;33.55;101379.64;1657212;85;21171;-75
2021/11/11 08:45:57;;;;;;;13.60;7.15;;;;;;;11.84;32.87;101378.23;1656896;86;21169;-77
2021/11/11 08:48:23;;;;;;;14.25;7.03;;;;;;;12.13;31.45;101374.11;1636480;86;21094;-75
2021/11/11 08:50:50;;;;;;;14.95;7.45;;;;;;;12.46;31.49;101376.83;1674084;84;21053;-75
2021/11/11 08:53:17;;;;;;;15.10;6.95;;;;;;;12.62;30.48;101370.24;1674621;85;21030;-76
2021/11/11 08:55:45;;;;;;;17.77;7.50;;;;;;;11.85;30.96;101365.48;1674448;85;21061;-75
2021/11/11 08:58:12;;;;;;;13.10;7.08;;;;;;;11.30;32.81;101364.88;1674202;85;21158;-73
2021/11/11 09:00:49;;;;;;;14.13;6.75;;;;;;;11.29;32.52;101354.35;1673871;85;21054;-75
2021/11/11 09:03:17;;;;;;;12.80;6.75;;;;;;;11.23;32.72;101347.91;1675841;82;21074;-75
2021/11/11 09:05:45;;;;;;;14.10;6.87;;;;;;;11.09;33.82;101342.91;1732121;82;21062;-76
2021/11/11 09:08:14;;;;;;;15.48;7.12;;;;;;;10.61;33.25;101333.25;1731883;82;21090;-75
2021/11/11 09:10:44;;;;;;;14.58;5.80;;;;;;;10.27;34.30;101325.90;1731860;81;21156;-74
2021/11/11 09:13:11;;;;;;;12.20;6.55;;;;;;;9.73;34.94;101319.73;1731845;81;21077;-74
2021/11/11 09:15:38;;;;;;;15.38;6.95;;;;;;;9.48;35.09;101314.83;1724239;82;21062;-75
2021/11/11 09:18:05;;;;;;;13.45;6.62;;;;;;;9.63;35.55;101307.16;1702641;82;21042;-74
2021/11/11 09:20:31;;;;;;;13.95;7.72;;;;;;;9.70;34.95;101306.17;1702808;84;21054;-74
2021/11/11 09:22:59;;;;;;;15.63;6.72;;;;;;;9.65;35.40;101308.01;1702682;82;21115;-75
2021/11/11 09:25:27;;;;;;;20.00;6.50;;;;;;;9.83;35.46;101291.95;1702894;82;21069;-75
2021/11/11 09:27:55;;;;;;;12.65;7.25;;;;;;;10.03;35.01;101284.17;1702930;84;21042;-76
2021/11/11 09:30:26;;;;;;;17.67;7.10;;;;;;;10.34;35.23;101281.08;1704471;84;21106;-74
2021/11/11 09:32:52;;;;;;;15.30;6.83;;;;;;;10.67;34.70;101269.93;1705609;84;21062;-74
2021/11/11 09:35:19;;;;;;;10.75;6.33;;;;;;;10.86;34.10;101266.94;1702859;82;21146;-75
2021/11/11 09:37:47;;;;;;;13.88;6.70;;;;;;;10.73;34.18;101256.20;1702669;84;21628;-73
2021/11/11 09:40:18;;;;;;;11.38;6.70;;;;;;;10.94;34.08;101250.95;1657040;86;21104;-75
2021/11/11 09:42:46;;;;;;;13.38;6.47;;;;;;;11.10;35.09;101238.72;1674063;84;21078;-76
2021/11/11 09:45:17;;;;;;;12.40;6.12;;;;;;;11.48;33.18;101234.38;1690462;84;21038;-74
2021/11/11 09:47:48;;;;;;;11.95;5.65;;;;;;;11.18;33.04;101234.63;1687265;84;21570;-75
2021/11/11 09:50:17;;;;;;;13.95;5.40;;;;;;;10.69;33.92;101236.48;1685034;85;21117;-74
2021/11/11 09:52:46;;;;;;;8.93;4.50;;;;;;;10.41;34.02;101218.18;1685418;85;21122;-75
2021/11/11 10:00:44;;;;;;;9.78;5.75;;;;;;;10.38;34.54;101195.87;1682872;85;21170;-77
2021/11/11 10:03:11;;;;;;;12.25;5.78;;;;;;;10.32;34.45;101198.61;1675026;83;21195;-76
2021/11/11 10:05:39;;;;;;;13.18;6.42;;;;;;;10.50;34.79;101203.52;1684818;85;21016;-73
2021/11/11 10:08:07;;;;;;;9.93;6.33;;;;;;;10.83;35.54;101197.14;1685472;85;21749;-75
2021/11/11 10:10:40;;;;;;;8.68;5.22;;;;;;;10.99;33.64;101197.23;1689760;83;21080;-75
2021/11/11 10:13:17;;;;;;;7.58;4.67;;;;;;;11.03;33.25;101185.72;1684036;85;21148;-74
2021/11/11 10:16:15;;;;;;;13.78;5.97;;;;;;;10.82;33.52;101186.20;1684031;85;21127;-74
2021/11/11 10:18:59;;;;;;;9.83;5.97;;;;;;;10.94;33.97;101163.52;1684762;85;21070;-76
2021/11/11 10:22:07;;;;;;;9.40;5.40;;;;;;;11.03;33.57;101151.45;1659502;86;21089;-75
2021/11/11 10:24:46;;;;;;;9.85;5.08;;;;;;;11.26;33.19;101142.16;1682259;85;21089;-76
2021/11/11 10:30:14;;;;;;;8.98;4.92;;;;;;;11.38;32.50;101123.39;1651813;83;21121;-74
2021/11/11 10:32:55;;;;;;;12.98;5.20;;;;;;;11.31;32.82;101113.89;1672766;85;21142;-74
2021/11/11 10:35:26;;;;;;;11.68;5.90;;;;;;;11.27;33.05;101106.95;1684807;85;21087;-74
2021/11/11 10:38:06;;;;;;;9.98;6.58;;;;;;;11.16;32.54;101099.33;1684741;85;21042;-73
2021/11/11 10:40:46;;;;;;;12.45;5.58;;;;;;;11.11;33.05;101081.41;1684216;83;21500;-76
2021/11/11 10:43:16;;;;;;;9.60;5.22;;;;;;;11.05;32.40;101075.84;1692195;84;21053;-76
2021/11/11 10:45:46;;;;;;;13.20;4.47;;;;;;;11.21;34.32;101072.84;1695093;84;21121;-75
2021/11/11 10:48:15;;;;;;;13.38;5.28;;;;;;;11.51;31.68;101078.66;1694907;84;21097;-76
2021/11/11 10:50:47;;;;;;;9.38;5.03;;;;;;;11.16;32.99;101077.34;1694756;84;21094;-75
2021/11/11 10:53:16;;;;;;;;;;;;;;;10.48;33.14;101081.53;1697195;84;21558;-76
2021/11/11 10:55:50;;;;;;;14.43;5.03;;;;;;;9.76;34.28;101094.33;1694825;84;20248;-77
2021/11/11 10:58:22;;;;;;;11.38;4.67;;;;;;;9.24;35.00;101089.95;1699776;82;21077;-73
2021/11/11 11:00:53;;;;;;;10.82;5.53;;;;;;;8.96;35.87;101090.39;1690627;82;21125;-72
2021/11/11 11:03:27;;;;;;;10.28;4.92;;;;;;;9.27;36.03;101099.13;1695549;84;21082;-74
2021/11/11 11:06:11;;;;;;;13.83;6.60;;;;;;;9.65;35.23;101101.09;1693154;82;21161;-74
2021/11/11 11:08:42;;;;;;;10.58;5.55;;;;;;;10.15;34.97;101094.47;1694602;83;21626;-72
2021/11/11 11:11:20;;;;;;;9.68;5.08;;;;;;;10.78;34.17;101093.16;1691285;83;21071;-73
2021/11/11 11:13:50;;;;;;;12.58;5.92;;;;;;;11.19;33.47;101087.38;1685123;84;21069;-73
2021/11/11 11:16:25;;;;;;;10.70;5.17;;;;;;;11.57;34.00;101082.04;1695373;83;21698;-74
2021/11/11 11:18:57;;;;;;;15.40;6.30;;;;;;;11.85;34.14;101091.44;1695189;84;21136;-73
2021/11/11 11:21:32;;;;;;;14.03;6.15;;;;;;;11.82;35.82;101075.20;1661075;86;22132;-72
2021/11/11 11:24:02;;;;;;;18.85;5.97;;;;;;;11.43;33.43;101072.70;1661187;86;21042;-74
2021/11/11 11:26:39;;;;;;;11.40;5.90;;;;;;;10.94;34.36;101069.96;1684792;83;21118;-74
2021/11/11 11:32:22;;;;;;;14.67;5.30;;;;;;;10.12;35.97;101066.02;1650649;85;21127;-72
2021/11/11 11:34:53;;;;;;;9.73;5.10;;;;;;;9.72;37.82;101062.39;1683554;85;21077;-73
2021/11/11 11:37:24;;;;;;;11.15;5.92;;;;;;;9.48;39.58;101060.20;1679159;85;21164;-73
2021/11/11 11:39:57;;;;;;;13.85;5.87;;;;;;;9.31;39.09;101060.05;1681480;85;21145;-74
2021/11/11 11:42:30;;;;;;;12.80;5.87;;;;;;;8.98;38.30;101055.77;1680361;85;21098;-73
2021/11/11 11:45:19;;;;;;;10.98;5.22;;;;;;;8.67;38.88;101045.30;1684416;85;21530;-74
2021/11/11 11:47:54;;;;;;;17.23;6.30;;;;;;;8.53;39.50;101040.24;1682633;85;21094;-74
2021/11/11 11:50:32;;;;;;;9.25;5.00;;;;;;;8.42;38.91;101036.48;1675668;85;21074;-72
2021/11/11 11:53:04;;;;;;;10.58;5.30;;;;;;;8.23;39.05;101030.99;1674924;85;21075;-75
2021/11/11 12:01:53;;;;;;;12.15;5.58;;;;;;;7.88;40.39;101018.73;1619537;88;21140;-73
2021/11/11 12:09:06;;;;;;;14.58;5.92;;;;;;;7.74;40.45;101009.72;1670491;85;21095;-72
2021/11/11 12:16:57;;;;;;;17.20;6.40;;;;;;;8.17;40.21;101018.39;1655161;86;21049;-74